• Join FlightAware (Why Join?)
  • Login
  • US Flag 
06:52AM EDT


 

Airport Tracker/Info


-or-


 

Live Flight TrackerFlight Track Log ✈ EJA922 ✈ 04-Aug-2013 ✈ KBFI - KTME

Flight Track Log - Related Links

Times and Time Zones

All times are in EDT time to prevent confusion due to time zone crossing. See the EJA922 flight status page for this flight to view local times or setup timezone preferences in your user account.

Time Position Orientation Groundspeed Altitude Reporting Facility
EDT Latitude Longitude Course Direction KTS MPH feet Rate Location/Type
12:09PM 47.5514 -122.3217 327° Northwest 184 212 1,200  Level Seattle Center
12:11PM 47.6075 -122.3761 327° Northwest 204 235 2,700 960 Climbing Seattle Center
12:11PM 47.5944 -122.4364 252° West 203 234 3,200 1,200 Climbing Seattle Center
12:12PM 47.5350 -122.4378 181° South 216 249 5,000 2,040 Climbing Seattle Center
12:13PM 47.4664 -122.4344 178° South 235 270 7,500 2,100 Climbing Seattle Center
12:14PM 47.3936 -122.4181 171° South 276 318 9,400 1,620 Climbing Seattle Center
12:16PM 47.3125 -122.3714 159° South 316 364 10,900 1,680 Climbing Seattle Center
12:17PM 47.2131 -122.3175 160° South 356 410 12,900 1,860 Climbing Seattle Center
12:18PM 47.1172 -122.2636 159° South 369 425 14,800 1,860 Climbing Seattle Center
12:19PM 47.0178 -122.2078 159° South 382 440 16,700 1,620 Climbing Seattle Center
12:20PM 46.9292 -122.1589 159° South 385 443 18,100 1,440 Climbing Seattle Center
12:21PM 46.8281 -122.1017 159° South 392 451 19,700 1,620 Climbing Seattle Center
12:22PM 46.7264 -121.9814 141° Southeast 411 473 21,400 1,440 Climbing Seattle Center
12:23PM 46.6722 -121.8328 118° Southeast 419 482 22,700 1,260 Climbing Seattle Center
12:24PM 46.6481 -121.6611 102° East 434 499 24,100 1,320 Climbing Seattle Center
12:25PM 46.6225 -121.4819 102° East 444 511 25,500 1,320 Climbing Seattle Center
12:26PM 46.5975 -121.3036 101° East 450 518 26,900 1,320 Climbing Seattle Center
12:27PM 46.5717 -121.1239 102° East 455 524 28,300 1,380 Climbing Seattle Center
12:28PM 46.5272 -120.9514 110° East 453 521 29,800 1,440 Climbing Seattle Center
12:29PM 46.4611 -120.7894 121° Southeast 466 536 31,300 1,500 Climbing Seattle Center
12:30PM 46.3964 -120.6286 120° Southeast 465 535 32,900 1,440 Climbing Seattle Center
12:31PM 46.3308 -120.4656 120° Southeast 466 536 34,300 1,560 Climbing Seattle Center
12:32PM 46.2497 -120.2692 121° Southeast 473 544 36,100 1,500 Climbing Seattle Center
12:33PM 46.1825 -120.1053 121° Southeast 476 548 37,400 1,080 Climbing Seattle Center
12:34PM 46.1156 -119.9428 121° Southeast 473 544 38,400 780 Climbing Seattle Center
12:35PM 46.0483 -119.7803 121° Southeast 472 543 39,000 240 Climbing Seattle Center
12:36PM 45.9775 -119.6125 121° Southeast 485 558 39,000  Level Seattle Center
12:37PM 45.9050 -119.4403 121° Southeast 498 573 39,000  Level Seattle Center
12:38PM 45.8292 -119.2633 122° Southeast 516 594 39,000  Level Seattle Center
12:39PM 45.7531 -119.0828 121° Southeast 525 604 39,000  Level Seattle Center
12:40PM 45.6769 -118.9028 121° Southeast 527 606 39,000  Level Seattle Center
12:41PM 45.5983 -118.7239 122° Southeast 530 610 39,000  Level Seattle Center
12:42PM 45.5214 -118.5458 122° Southeast 528 608 39,000  Level Seattle Center
12:43PM 45.4436 -118.3672 122° Southeast 529 609 39,000  Level Seattle Center
12:44PM 45.3658 -118.1911 122° Southeast 527 606 39,000  Level Seattle Center
12:45PM 45.2881 -118.0147 122° Southeast 527 606 39,000  Level Seattle Center
12:46PM 45.1933 -117.8011 122° Southeast 532 612 39,000  Level Seattle Center
12:47PM 45.1158 -117.6303 123° Southeast 531 611 39,000  Level Seattle Center
12:48PM 45.0653 -117.5186 123° Southeast 531 611 39,000  Level Salt Lake Center
12:49PM 44.9750 -117.3211 123° Southeast 535 616 39,000  Level Salt Lake Center
12:50PM 44.8986 -117.1519 122° Southeast 535 616 39,000  Level Salt Lake Center
12:51PM 44.8081 -116.9542 123° Southeast 537 618 39,000  Level Salt Lake Center
12:52PM 44.7308 -116.7856 123° Southeast 536 617 39,000  Level Salt Lake Center
12:53PM 44.6406 -116.5906 123° Southeast 535 616 39,000  Level Salt Lake Center
12:54PM 44.5628 -116.4242 123° Southeast 533 613 39,000  Level Salt Lake Center
12:55PM 44.4792 -116.2469 123° Southeast 530 610 39,000  Level Salt Lake Center
12:56PM 44.3858 -116.0464 123° Southeast 541 623 39,000  Level Salt Lake Center
12:57PM 44.3064 -115.8797 124° Southeast 541 623 39,000  Level Salt Lake Center
12:58PM 44.2147 -115.6897 124° Southeast 532 612 39,000  Level Salt Lake Center
12:59PM 44.1336 -115.5225 124° Southeast 542 624 39,000  Level Salt Lake Center
01:00PM 44.0411 -115.3308 124° Southeast 535 616 39,000  Level Salt Lake Center
01:01PM 43.9606 -115.1672 124° Southeast 536 617 39,000  Level Salt Lake Center
01:02PM 43.8811 -115.0039 124° Southeast 536 617 39,000  Level Salt Lake Center
01:03PM 43.7878 -114.8144 124° Southeast 533 613 39,000  Level Salt Lake Center
01:04PM 43.7078 -114.6525 124° Southeast 535 616 39,000  Level Salt Lake Center
01:05PM 43.6150 -114.4647 124° Southeast 531 611 39,000  Level Salt Lake Center
01:06PM 43.5331 -114.3053 125° Southeast 532 612 39,000  Level Salt Lake Center
01:07PM 43.4397 -114.1189 125° Southeast 530 610 39,000  Level Salt Lake Center
01:08PM 43.3592 -113.9592 125° Southeast 531 611 39,000  Level Salt Lake Center
01:10PM 43.2719 -113.7900 125° Southeast 528 608 39,000  Level Salt Lake Center
01:11PM 43.1786 -113.6072 125° Southeast 525 604 39,000  Level Salt Lake Center
01:12PM 43.0972 -113.4522 126° Southeast 525 604 39,000  Level Salt Lake Center
01:13PM 43.0022 -113.2686 125° Southeast 530 610 39,000  Level Salt Lake Center
01:14PM 42.9214 -113.1128 125° Southeast 528 608 39,000  Level Salt Lake Center
01:15PM 42.8261 -112.9325 126° Southeast 526 605 39,000  Level Salt Lake Center
01:16PM 42.7442 -112.7778 126° Southeast 525 604 39,000  Level Salt Lake Center
01:17PM 42.6594 -112.6200 126° Southeast 527 606 39,000  Level Salt Lake Center
01:18PM 42.5742 -112.4589 126° Southeast 527 606 39,000  Level Salt Lake Center
01:19PM 42.4700 -112.2692 127° Southeast 524 603 39,000  Level Salt Lake Center
01:20PM 42.3842 -112.1092 126° Southeast 525 604 39,000  Level Salt Lake Center
01:21PM 42.2978 -111.9511 126° Southeast 523 602 39,000  Level Salt Lake Center
01:22PM 42.2108 -111.7914 126° Southeast 526 605 39,000  Level Salt Lake Center
01:23PM 42.1236 -111.6328 127° Southeast 526 605 39,000  Level Salt Lake Center
01:24PM 42.0358 -111.4731 126° Southeast 528 608 39,000  Level Salt Lake Center
01:25PM 41.9300 -111.2825 127° Southeast 529 609 39,000  Level Salt Lake Center
01:26PM 41.8403 -111.1250 127° Southeast 531 611 39,000  Level Salt Lake Center
01:27PM 41.7517 -110.9661 127° Southeast 532 612 39,000  Level Salt Lake Center
01:28PM 41.6647 -110.8133 127° Southeast 529 609 39,000  Level Salt Lake Center
01:29PM 41.5656 -110.6372 127° Southeast 533 613 39,000  Level Salt Lake Center
01:30PM 41.4806 -110.4875 127° Southeast 530 610 39,000  Level Salt Lake Center
01:31PM 41.3806 -110.3139 127° Southeast 530 610 39,000  Level Salt Lake Center
01:32PM 41.2939 -110.1650 128° Southeast 533 613 39,000  Level Salt Lake Center
01:33PM 41.1939 -109.9922 128° Southeast 531 611 39,000  Level Salt Lake Center
01:34PM 41.1067 -109.8431 128° Southeast 535 616 39,000  Level Salt Lake Center
01:35PM 41.0056 -109.6706 128° Southeast 535 616 39,000  Level Salt Lake Center
01:36PM 40.9183 -109.5225 128° Southeast 536 617 39,000  Level Salt Lake Center
01:37PM 40.8211 -109.3583 128° Southeast 534 615 39,000  Level Salt Lake Center
01:38PM 40.7325 -109.2106 128° Southeast 535 616 39,000  Level Salt Lake Center
01:39PM 40.6456 -109.0586 127° Southeast 535 616 39,000 180 Level Denver Center
01:40PM 40.5575 -108.9142 129° Southeast 530 610 39,400 720 Climbing Denver Center
01:41PM 40.4592 -108.7481 128° Southeast 514 592 40,600 720 Climbing Denver Center
01:42PM 40.3750 -108.6086 128° Southeast 508 585 41,000 180 Climbing Denver Center
01:43PM 40.2747 -108.4464 129° Southeast 511 588 41,000  Level Denver Center
01:45PM 40.1872 -108.3039 129° Southeast 516 594 41,000  Level Denver Center
01:46PM 40.0844 -108.1364 129° Southeast 522 601 41,000  Level Denver Center
01:47PM 39.9972 -107.9953 129° Southeast 520 598 41,000  Level Denver Center
01:48PM 39.8806 -107.8072 129° Southeast 520 598 41,000  Level Denver Center
01:49PM 39.7931 -107.6669 129° Southeast 519 597 41,000  Level Denver Center
01:50PM 39.6906 -107.5056 130° Southeast 518 596 41,000  Level Denver Center
01:51PM 39.6019 -107.3689 130° Southeast 516 594 41,000  Level Denver Center
01:52PM 39.4994 -107.2081 130° Southeast 517 595 41,000  Level Denver Center
01:53PM 39.3969 -107.0467 129° Southeast 518 596 41,000  Level Denver Center
01:54PM 39.2964 -106.8861 129° Southeast 512 589 41,000  Level Denver Center
01:55PM 39.2069 -106.7517 131° Southeast 513 590 41,000  Level Denver Center
01:56PM 39.1044 -106.5919 130° Southeast 516 594 41,000  Level Denver Center
01:57PM 39.0172 -106.4569 130° Southeast 513 590 41,000  Level Denver Center
01:58PM 38.9133 -106.3003 130° Southeast 515 593 41,000  Level Denver Center
01:59PM 38.8236 -106.1619 130° Southeast 514 592 41,000  Level Denver Center
02:00PM 38.7325 -106.0231 130° Southeast 513 590 41,000  Level Denver Center
02:01PM 38.6386 -105.8842 131° Southeast 518 596 41,000  Level Denver Center
02:03PM 38.5478 -105.7450 130° Southeast 513 590 41,000  Level Denver Center
02:04PM 38.4375 -105.5808 131° Southeast 513 590 41,000  Level Denver Center
02:05PM 38.3447 -105.4433 131° Southeast 512 589 41,000  Level Denver Center
02:06PM 38.2500 -105.3003 130° Southeast 519 597 41,000  Level Denver Center
02:07PM 38.1594 -105.1694 131° Southeast 517 595 41,000  Level Denver Center
02:08PM 38.0556 -105.0161 131° Southeast 514 592 41,000  Level Denver Center
02:09PM 37.9644 -104.8839 131° Southeast 518 596 41,000  Level Denver Center
02:10PM 37.8764 -104.7531 130° Southeast 512 589 41,000  Level Denver Center
02:11PM 37.7711 -104.6014 131° Southeast 514 592 41,000  Level Denver Center
02:12PM 37.6661 -104.4508 131° Southeast 513 590 41,000  Level Denver Center
02:13PM 37.5764 -104.3233 132° Southeast 511 588 41,000  Level Denver Center
02:14PM 37.4706 -104.1747 132° Southeast 516 594 41,000  Level Denver Center
02:15PM 37.3686 -104.0247 131° Southeast 514 592 41,000  Level Denver Center
02:16PM 37.2789 -103.8978 132° Southeast 511 588 41,000  Level Denver Center
02:17PM 37.1594 -103.7267 131° Southeast 513 590 41,000  Level Denver Center
02:18PM 37.0842 -103.6214 132° Southeast 513 590 41,000  Level Albuquerque Center
02:19PM 36.9789 -103.4728 132° Southeast 511 588 41,000  Level Albuquerque Center
02:20PM 36.8878 -103.3467 132° Southeast 510 587 41,000  Level Albuquerque Center
02:21PM 36.7817 -103.1983 132° Southeast 512 589 41,000  Level Albuquerque Center
02:22PM 36.6900 -103.0719 132° Southeast 512 589 41,000  Level Albuquerque Center
02:23PM 36.5894 -102.9336 132° Southeast 518 596 41,000  Level Albuquerque Center
02:24PM 36.4897 -102.7961 132° Southeast 515 593 41,000  Level Albuquerque Center
02:25PM 36.3931 -102.6664 133° Southeast 513 590 41,000  Level Albuquerque Center
02:26PM 36.2978 -102.5350 132° Southeast 512 589 41,000  Level Albuquerque Center
02:27PM 36.2033 -102.4058 132° Southeast 508 585 41,000  Level Albuquerque Center
02:28PM 36.0889 -102.2514 132° Southeast 507 583 41,000  Level Albuquerque Center
02:29PM 35.9928 -102.1214 132° Southeast 512 589 41,000  Level Albuquerque Center
02:30PM 35.8967 -101.9933 133° Southeast 509 586 41,000  Level Albuquerque Center
02:31PM 35.8003 -101.8642 133° Southeast 510 587 41,000  Level Albuquerque Center
02:33PM 35.7047 -101.7358 132° Southeast 507 583 41,000  Level Albuquerque Center
02:34PM 35.6075 -101.6078 133° Southeast 509 586 41,000  Level Albuquerque Center
02:35PM 35.4972 -101.4600 132° Southeast 510 587 41,000  Level Albuquerque Center
02:36PM 35.4000 -101.3342 133° Southeast 510 587 41,000  Level Albuquerque Center
02:37PM 35.3128 -101.2203 133° Southeast 514 592 41,000  Level Albuquerque Center
02:38PM 35.1942 -101.0667 133° Southeast 515 593 41,000  Level Albuquerque Center
02:39PM 35.0969 -100.9400 133° Southeast 511 588 41,000  Level Albuquerque Center
02:40PM 34.9989 -100.8133 133° Southeast 512 589 41,000  Level Albuquerque Center
02:41PM 34.9014 -100.6867 133° Southeast 513 590 41,000  Level Albuquerque Center
02:42PM 34.8028 -100.5614 134° Southeast 512 589 41,000  Level Albuquerque Center
02:43PM 34.7053 -100.4353 133° Southeast 511 588 41,000  Level Albuquerque Center
02:44PM 34.6075 -100.3092 133° Southeast 513 590 41,000  Level Albuquerque Center
02:45PM 34.4894 -100.1600 134° Southeast 512 589 41,000  Level Albuquerque Center
02:46PM 34.4142 -100.0667 134° Southeast 507 583 41,000  Level Fort Worth Center
02:47PM 34.3144 -99.9456 135° Southeast 507 583 41,000  Level Fort Worth Center
02:48PM 34.2169 -99.8169 132° Southeast 507 583 41,000  Level Fort Worth Center
02:49PM 34.1192 -99.6939 134° Southeast 512 589 41,000  Level Fort Worth Center
02:50PM 34.0192 -99.5711 134° Southeast 512 589 41,000  Level Fort Worth Center
02:51PM 33.9189 -99.4458 134° Southeast 512 589 41,000  Level Fort Worth Center
02:52PM 33.8206 -99.3236 134° Southeast 512 589 41,000  Level Fort Worth Center
02:53PM 33.7222 -99.1992 134° Southeast 512 589 41,000  Level Fort Worth Center
02:54PM 33.6300 -99.0875 135° Southeast 512 589 41,000  Level Fort Worth Center
02:55PM 33.5189 -98.9508 134° Southeast 512 589 41,000  Level Fort Worth Center
02:56PM 33.4181 -98.8294 135° Southeast 512 589 41,000  Level Fort Worth Center
02:57PM 33.3192 -98.7061 134° Southeast 512 589 41,000  Level Fort Worth Center
02:58PM 33.2161 -98.5856 136° Southeast 512 589 41,000  Level Fort Worth Center
02:59PM 33.1169 -98.4650 134° Southeast 512 589 41,000  Level Fort Worth Center
03:00PM 33.0281 -98.3625 136° Southeast 507 583 41,000  Level Fort Worth Center
03:01PM 32.9286 -98.2400 134° Southeast 507 583 41,000  Level Fort Worth Center
03:02PM 32.8292 -98.1206 135° Southeast 507 583 41,000  Level Fort Worth Center
03:03PM 32.7275 -98.0086 137° Southeast 507 583 41,000  Level Fort Worth Center
03:04PM 32.6047 -97.9164 148° Southeast 507 583 41,000  Level Fort Worth Center
03:05PM 32.4819 -97.8319 150° Southeast 507 583 41,000  Level Fort Worth Center
03:06PM 32.3569 -97.7478 150° Southeast 507 583 41,000  Level Fort Worth Center
03:07PM 32.2361 -97.6639 150° Southeast 512 589 41,000  Level Fort Worth Center
03:08PM 32.1297 -97.5581 140° Southeast 507 583 41,000  Level Fort Worth Center
03:09PM 32.0297 -97.4453 136° Southeast 498 573 41,000 -660 Level Fort Worth Center
03:10PM 31.9314 -97.3278 135° Southeast 498 573 39,700 -1,620 Descending Fort Worth Center
03:10PM 31.8603 -97.2661 144° Southeast 498 573 38,400 -1,920 Descending Houston Center
03:11PM 31.7353 -97.1797 150° Southeast 513 590 36,600 -1,800 Descending Houston Center
03:12PM 31.6075 -97.0911 149° Southeast 524 603 34,700 -1,800 Descending Houston Center
03:13PM 31.4803 -97.0058 150° Southeast 521 600 32,900 -1,800 Descending Houston Center
03:14PM 31.3489 -96.9217 151° Southeast 526 605 31,000 -1,920 Descending Houston Center
03:15PM 31.1914 -96.8275 153° Southeast 532 612 28,900 -2,160 Descending Houston Center
03:16PM 31.0603 -96.7483 153° Southeast 527 606 26,600 -2,520 Descending Houston Center
03:18PM 30.9336 -96.6739 153° Southeast 509 586 23,700 -2,940 Descending Houston Center
03:19PM 30.8139 -96.6033 153° Southeast 486 559 20,600 -3,060 Descending Houston Center
03:19PM 30.7211 -96.5506 154° Southeast 463 533 18,200 -2,880 Descending Houston Center
03:20PM 30.6042 -96.4808 153° Southeast 411 473 15,200 -2,700 Descending Houston Center
03:22PM 30.5000 -96.4147 151° Southeast 376 433 12,200 -2,400 Descending Houston Center
03:23PM 30.4303 -96.3331 135° Southeast 342 394 10,200 -1,620 Descending Houston Center
03:24PM 30.3719 -96.2619 134° Southeast 273 314 9,000 -1,560 Descending Houston Center
03:25PM 30.3294 -96.2064 132° Southeast 247 284 7,200 -1,980 Descending Houston Center
03:26PM 30.2639 -96.1508 144° Southeast 250 288 5,000 -1,080 Descending Houston Center
03:27PM 30.2089 -96.0967 140° Southeast 249 287 5,000  Level Houston Center
03:28PM 30.1561 -96.0422 138° Southeast 250 288 5,000  Level Houston Center
03:29PM 30.0989 -95.9883 141° Southeast 255 293 5,000 -480 Level Houston Center
03:30PM 30.0461 -95.9367 140° Southeast 248 285 4,100 -1,200 Descending Houston Center
03:31PM 29.9928 -95.9017 150° Southeast 234 269 2,700 -1,080 Descending Houston Center
03:32PM 29.9294 -95.8994 178° South 217 250 2,000 -720 Descending Houston Center